sensor_id;sensor_type;location;lat;lon;timestamp;pressure;altitude;pressure_sealevel;temperature;humidity
10587;BME280;5341;47.606;7.576;2023-02-28T00:01:47;99216.38;;;5.37;44.53
10587;BME280;5341;47.606;7.576;2023-02-28T00:04:15;99219.31;;;5.34;44.00
10587;BME280;5341;47.606;7.576;2023-02-28T00:06:42;99213.28;;;5.32;43.90
10587;BME280;5341;47.606;7.576;2023-02-28T00:09:10;99220.28;;;5.33;43.87
10587;BME280;5341;47.606;7.576;2023-02-28T00:11:37;99225.44;;;5.35;44.11
10587;BME280;5341;47.606;7.576;2023-02-28T00:14:06;99216.66;;;5.34;44.34
10587;BME280;5341;47.606;7.576;2023-02-28T00:16:33;99218.31;;;5.35;43.92
10587;BME280;5341;47.606;7.576;2023-02-28T00:19:01;99220.13;;;5.35;44.14
10587;BME280;5341;47.606;7.576;2023-02-28T00:21:28;99215.66;;;5.35;43.77
10587;BME280;5341;47.606;7.576;2023-02-28T00:23:55;99220.00;;;5.36;44.16
10587;BME280;5341;47.606;7.576;2023-02-28T00:26:23;99217.19;;;5.38;43.75
10587;BME280;5341;47.606;7.576;2023-02-28T00:28:52;99224.31;;;5.37;43.53
10587;BME280;5341;47.606;7.576;2023-02-28T00:31:24;99217.47;;;5.35;43.96
10587;BME280;5341;47.606;7.576;2023-02-28T00:33:52;99213.00;;;5.35;43.82
10587;BME280;5341;47.606;7.576;2023-02-28T00:36:20;99214.84;;;5.35;43.59
10587;BME280;5341;47.606;7.576;2023-02-28T00:38:48;99226.28;;;5.35;44.18
10587;BME280;5341;47.606;7.576;2023-02-28T00:41:15;99216.66;;;5.34;43.86
10587;BME280;5341;47.606;7.576;2023-02-28T00:43:42;99221.13;;;5.34;43.92
10587;BME280;5341;47.606;7.576;2023-02-28T00:46:11;99227.25;;;5.34;44.05
10587;BME280;5341;47.606;7.576;2023-02-28T00:48:40;99220.13;;;5.35;44.08
10587;BME280;5341;47.606;7.576;2023-02-28T00:51:08;99225.44;;;5.35;43.88
10587;BME280;5341;47.606;7.576;2023-02-28T00:53:35;99214.97;;;5.33;43.75
10587;BME280;5341;47.606;7.576;2023-02-28T00:56:03;99214.25;;;5.31;44.25
10587;BME280;5341;47.606;7.576;2023-02-28T00:58:31;99223.19;;;5.30;44.28
10587;BME280;5341;47.606;7.576;2023-02-28T01:00:59;99219.41;;;5.33;44.66
10587;BME280;5341;47.606;7.576;2023-02-28T01:03:26;99214.97;;;5.33;44.17
10587;BME280;5341;47.606;7.576;2023-02-28T01:05:55;99224.59;;;5.34;44.25
10587;BME280;5341;47.606;7.576;2023-02-28T01:08:22;99220.13;;;5.35;44.58
10587;BME280;5341;47.606;7.576;2023-02-28T01:10:52;99217.47;;;5.35;44.66
10587;BME280;5341;47.606;7.576;2023-02-28T01:13:20;99216.50;;;5.36;44.33
10587;BME280;5341;47.606;7.576;2023-02-28T01:15:51;99214.69;;;5.36;43.98
10587;BME280;5341;47.606;7.576;2023-02-28T01:18:19;99211.06;;;5.37;44.54
10587;BME280;5341;47.606;7.576;2023-02-28T01:20:47;99216.38;;;5.37;44.13
10587;BME280;5341;47.606;7.576;2023-02-28T01:23:18;99211.06;;;5.37;44.15
10587;BME280;5341;47.606;7.576;2023-02-28T01:25:46;99209.25;;;5.38;44.43
10587;BME280;5341;47.606;7.576;2023-02-28T01:28:13;99214.53;;;5.38;44.57
10587;BME280;5341;47.606;7.576;2023-02-28T01:30:40;99207.44;;;5.38;44.84
10587;BME280;5341;47.606;7.576;2023-02-28T01:33:08;99207.44;;;5.38;44.46
10587;BME280;5341;47.606;7.576;2023-02-28T01:35:36;99199.47;;;5.38;44.58
10587;BME280;5341;47.606;7.576;2023-02-28T01:38:03;99209.09;;;5.39;44.81
10587;BME280;5341;47.606;7.576;2023-02-28T01:40:33;99208.25;;;5.39;44.08
10587;BME280;5341;47.606;7.576;2023-02-28T01:43:01;99202.97;;;5.39;44.30
10587;BME280;5341;47.606;7.576;2023-02-28T01:45:31;99200.31;;;5.39;44.22
10587;BME280;5341;47.606;7.576;2023-02-28T01:48:02;99197.09;;;5.35;44.20
10587;BME280;5341;47.606;7.576;2023-02-28T01:50:33;99196.97;;;5.37;44.60
10587;BME280;5341;47.606;7.576;2023-02-28T01:53:05;99195.16;;;5.37;44.52
10587;BME280;5341;47.606;7.576;2023-02-28T01:55:36;99194.31;;;5.37;44.25
10587;BME280;5341;47.606;7.576;2023-02-28T01:58:05;99195.97;;;5.38;44.69
10587;BME280;5341;47.606;7.576;2023-02-28T02:00:33;99185.53;;;5.36;44.81
10587;BME280;5341;47.606;7.576;2023-02-28T02:03:06;99192.63;;;5.36;44.75
10587;BME280;5341;47.606;7.576;2023-02-28T02:05:37;99187.34;;;5.36;44.97
10587;BME280;5341;47.606;7.576;2023-02-28T02:08:08;99192.63;;;5.36;44.50
10587;BME280;5341;47.606;7.576;2023-02-28T02:10:41;99190.00;;;5.36;44.88
10587;BME280;5341;47.606;7.576;2023-02-28T02:13:36;99186.50;;;5.35;45.03
10587;BME280;5341;47.606;7.576;2023-02-28T02:16:14;99178.53;;;5.35;44.38
10587;BME280;5341;47.606;7.576;2023-02-28T02:18:48;99189.16;;;5.35;44.77
10587;BME280;5341;47.606;7.576;2023-02-28T02:24:47;99180.22;;;5.36;44.68
10587;BME280;5341;47.606;7.576;2023-02-28T02:27:39;99176.59;;;5.37;45.07
10587;BME280;5341;47.606;7.576;2023-02-28T02:30:44;99173.09;;;5.37;44.82
10587;BME280;5341;47.606;7.576;2023-02-28T02:36:33;99178.53;;;5.35;44.66
10587;BME280;5341;47.606;7.576;2023-02-28T02:39:07;99174.22;;;5.34;44.67
10587;BME280;5341;47.606;7.576;2023-02-28T02:41:41;99167.94;;;5.35;44.50
10587;BME280;5341;47.606;7.576;2023-02-28T02:44:17;99169.59;;;5.36;45.06
10587;BME280;5341;47.606;7.576;2023-02-28T02:46:51;99163.47;;;5.36;44.71
10587;BME280;5341;47.606;7.576;2023-02-28T02:49:24;99172.25;;;5.36;45.09
10587;BME280;5341;47.606;7.576;2023-02-28T02:51:55;99171.28;;;5.37;45.05
10587;BME280;5341;47.606;7.576;2023-02-28T02:54:27;99169.59;;;5.36;44.65
10587;BME280;5341;47.606;7.576;2023-02-28T02:56:59;99176.72;;;5.36;44.55
10587;BME280;5341;47.606;7.576;2023-02-28T02:59:30;99172.25;;;5.36;44.75
10587;BME280;5341;47.606;7.576;2023-02-28T03:02:01;99172.41;;;5.35;45.45
10587;BME280;5341;47.606;7.576;2023-02-28T03:04:32;99169.03;;;5.33;45.31
10587;BME280;5341;47.606;7.576;2023-02-28T03:07:03;99176.16;;;5.32;45.26
10587;BME280;5341;47.606;7.576;2023-02-28T03:09:33;99171.81;;;5.31;45.36
10587;BME280;5341;47.606;7.576;2023-02-28T03:12:02;99177.25;;;5.29;45.10
10587;BME280;5341;47.606;7.576;2023-02-28T03:14:42;99182.44;;;5.31;44.74
10587;BME280;5341;47.606;7.576;2023-02-28T03:17:47;99171.81;;;5.31;45.45
10587;BME280;5341;47.606;7.576;2023-02-28T03:20:30;99180.06;;;5.28;44.93
10587;BME280;5341;47.606;7.576;2023-02-28T03:23:10;99178.38;;;5.27;44.87
10587;BME280;5341;47.606;7.576;2023-02-28T03:25:51;99172.53;;;5.23;45.40
10587;BME280;5341;47.606;7.576;2023-02-28T03:28:24;99177.00;;;5.23;45.28
10587;BME280;5341;47.606;7.576;2023-02-28T03:30:59;99171.00;;;5.21;45.50
10587;BME280;5341;47.606;7.576;2023-02-28T03:33:33;99171.13;;;5.19;45.75
10587;BME280;5341;47.606;7.576;2023-02-28T03:36:04;99176.56;;;5.18;45.22
10587;BME280;5341;47.606;7.576;2023-02-28T03:38:39;99169.88;;;5.14;45.83
10587;BME280;5341;47.606;7.576;2023-02-28T03:41:12;99186.06;;;5.11;45.63
10587;BME280;5341;47.606;7.576;2023-02-28T03:43:44;99185.31;;;5.09;45.87
10587;BME280;5341;47.606;7.576;2023-02-28T03:46:15;99185.75;;;5.04;45.83
10587;BME280;5341;47.606;7.576;2023-02-28T03:48:51;99185.88;;;5.03;45.76
10587;BME280;5341;47.606;7.576;2023-02-28T03:51:23;99186.88;;;5.02;46.45
10587;BME280;5341;47.606;7.576;2023-02-28T03:53:59;99183.50;;;4.99;45.94
10587;BME280;5341;47.606;7.576;2023-02-28T03:56:33;99188.81;;;4.99;46.20
10587;BME280;5341;47.606;7.576;2023-02-28T03:59:05;99193.28;;;4.99;46.01
10587;BME280;5341;47.606;7.576;2023-02-28T04:01:37;99193.41;;;4.97;46.25
10587;BME280;5341;47.606;7.576;2023-02-28T04:04:07;99193.28;;;4.99;46.70
10587;BME280;5341;47.606;7.576;2023-02-28T04:06:35;99204.03;;;4.97;46.32
10587;BME280;5341;47.606;7.576;2023-02-28T04:09:05;99196.19;;;4.96;47.13
10587;BME280;5341;47.606;7.576;2023-02-28T04:11:36;99203.44;;;4.94;46.47
10587;BME280;5341;47.606;7.576;2023-02-28T04:14:05;99203.44;;;4.94;46.92
10587;BME280;5341;47.606;7.576;2023-02-28T04:16:35;99200.78;;;4.94;46.43
10587;BME280;5341;47.606;7.576;2023-02-28T04:19:04;99200.78;;;4.94;47.01
10587;BME280;5341;47.606;7.576;2023-02-28T04:21:34;99205.25;;;4.93;46.93
10587;BME280;5341;47.606;7.576;2023-02-28T04:24:04;99213.19;;;4.93;46.56
10587;BME280;5341;47.606;7.576;2023-02-28T04:26:32;99212.50;;;4.91;47.40
10587;BME280;5341;47.606;7.576;2023-02-28T04:29:01;99220.44;;;4.91;47.52
10587;BME280;5341;47.606;7.576;2023-02-28T04:31:28;99216.13;;;4.90;47.30
10587;BME280;5341;47.606;7.576;2023-02-28T04:33:56;99218.91;;;4.89;47.47
10587;BME280;5341;47.606;7.576;2023-02-28T04:36:23;99223.38;;;4.88;47.14
10587;BME280;5341;47.606;7.576;2023-02-28T04:38:51;99224.34;;;4.87;47.08
10587;BME280;5341;47.606;7.576;2023-02-28T04:41:21;99217.38;;;4.86;47.31
10587;BME280;5341;47.606;7.576;2023-02-28T04:43:50;99223.66;;;4.85;47.12
10587;BME280;5341;47.606;7.576;2023-02-28T04:46:18;99222.09;;;4.83;47.52
10587;BME280;5341;47.606;7.576;2023-02-28T04:48:45;99222.09;;;4.83;47.86
10587;BME280;5341;47.606;7.576;2023-02-28T04:51:14;99223.91;;;4.82;47.45
10587;BME280;5341;47.606;7.576;2023-02-28T04:53:43;99225.72;;;4.82;47.65
10587;BME280;5341;47.606;7.576;2023-02-28T04:56:12;99227.38;;;4.83;47.49
10587;BME280;5341;47.606;7.576;2023-02-28T04:58:41;99217.75;;;4.82;47.21
10587;BME280;5341;47.606;7.576;2023-02-28T05:01:18;99229.19;;;4.82;47.88
10587;BME280;5341;47.606;7.576;2023-02-28T05:03:46;99232.81;;;4.81;47.17
10587;BME280;5341;47.606;7.576;2023-02-28T05:06:14;99227.38;;;4.83;47.79
10587;BME280;5341;47.606;7.576;2023-02-28T05:08:42;99230.03;;;4.83;47.58
10587;BME280;5341;47.606;7.576;2023-02-28T05:11:14;99233.53;;;4.83;47.65
10587;BME280;5341;47.606;7.576;2023-02-28T05:13:44;99228.22;;;4.83;47.77
10587;BME280;5341;47.606;7.576;2023-02-28T05:16:11;99235.34;;;4.83;48.13
10587;BME280;5341;47.606;7.576;2023-02-28T05:18:39;99235.34;;;4.83;48.11
10587;BME280;5341;47.606;7.576;2023-02-28T05:21:21;99238.97;;;4.82;47.49
10587;BME280;5341;47.606;7.576;2023-02-28T05:23:51;99239.94;;;4.81;47.93
10587;BME280;5341;47.606;7.576;2023-02-28T05:26:19;99241.88;;;4.79;47.85
10587;BME280;5341;47.606;7.576;2023-02-28T05:28:48;99239.22;;;4.79;48.04
10587;BME280;5341;47.606;7.576;2023-02-28T05:31:15;99234.91;;;4.78;48.41
10587;BME280;5341;47.606;7.576;2023-02-28T05:33:43;99234.91;;;4.78;47.80
10587;BME280;5341;47.606;7.576;2023-02-28T05:36:11;99241.03;;;4.78;47.55
10587;BME280;5341;47.606;7.576;2023-02-28T05:38:39;99240.06;;;4.79;47.85
10587;BME280;5341;47.606;7.576;2023-02-28T05:41:07;99239.38;;;4.77;48.09
10587;BME280;5341;47.606;7.576;2023-02-28T05:43:35;99241.03;;;4.78;48.21
10587;BME280;5341;47.606;7.576;2023-02-28T05:46:06;99233.09;;;4.78;48.46
10587;BME280;5341;47.606;7.576;2023-02-28T05:48:34;99235.63;;;4.80;48.08
10587;BME280;5341;47.606;7.576;2023-02-28T05:51:02;99240.06;;;4.79;47.91
10587;BME280;5341;47.606;7.576;2023-02-28T05:53:30;99240.91;;;4.80;48.04
10587;BME280;5341;47.606;7.576;2023-02-28T05:55:59;99237.41;;;4.79;48.17
10587;BME280;5341;47.606;7.576;2023-02-28T05:58:27;99240.91;;;4.80;48.22
10587;BME280;5341;47.606;7.576;2023-02-28T06:00:57;99242.72;;;4.79;47.87
10587;BME280;5341;47.606;7.576;2023-02-28T06:03:27;99243.56;;;4.80;48.31
10587;BME280;5341;47.606;7.576;2023-02-28T06:05:55;99248.84;;;4.80;48.58
10587;BME280;5341;47.606;7.576;2023-02-28T06:08:22;99251.66;;;4.78;47.94
10587;BME280;5341;47.606;7.576;2023-02-28T06:10:49;99250.81;;;4.78;48.54
10587;BME280;5341;47.606;7.576;2023-02-28T06:13:17;99249.97;;;4.77;47.97
10587;BME280;5341;47.606;7.576;2023-02-28T06:15:44;99244.66;;;4.77;48.72
10587;BME280;5341;47.606;7.576;2023-02-28T06:18:11;99254.28;;;4.78;48.07
10587;BME280;5341;47.606;7.576;2023-02-28T06:20:42;99249.00;;;4.78;48.19
10587;BME280;5341;47.606;7.576;2023-02-28T06:23:10;99249.97;;;4.77;48.14
10587;BME280;5341;47.606;7.576;2023-02-28T06:25:37;99255.28;;;4.77;47.99
10587;BME280;5341;47.606;7.576;2023-02-28T06:28:04;99263.22;;;4.77;48.56
10587;BME280;5341;47.606;7.576;2023-02-28T06:30:32;99259.72;;;4.77;48.10
10587;BME280;5341;47.606;7.576;2023-02-28T06:32:59;99259.72;;;4.77;48.04
10587;BME280;5341;47.606;7.576;2023-02-28T06:35:27;99259.03;;;4.75;48.61
10587;BME280;5341;47.606;7.576;2023-02-28T06:37:57;99258.19;;;4.74;48.13
10587;BME280;5341;47.606;7.576;2023-02-28T06:40:24;99266.97;;;4.75;48.32
10587;BME280;5341;47.606;7.576;2023-02-28T06:42:52;99268.78;;;4.74;48.37
10587;BME280;5341;47.606;7.576;2023-02-28T06:45:20;99272.28;;;4.75;48.83
10587;BME280;5341;47.606;7.576;2023-02-28T06:47:47;99270.47;;;4.75;48.30
10587;BME280;5341;47.606;7.576;2023-02-28T06:50:18;99270.59;;;4.74;48.31
10587;BME280;5341;47.606;7.576;2023-02-28T06:52:46;99274.94;;;4.75;48.36
10587;BME280;5341;47.606;7.576;2023-02-28T06:55:15;99268.78;;;4.74;48.63
10587;BME280;5341;47.606;7.576;2023-02-28T06:57:44;99267.94;;;4.74;48.72
10587;BME280;5341;47.606;7.576;2023-02-28T07:00:17;99266.13;;;4.74;48.71
10587;BME280;5341;47.606;7.576;2023-02-28T07:02:45;99270.59;;;4.74;49.10
10587;BME280;5341;47.606;7.576;2023-02-28T07:05:13;99275.06;;;4.73;48.49
10587;BME280;5341;47.606;7.576;2023-02-28T07:07:40;99275.06;;;4.73;49.16
10587;BME280;5341;47.606;7.576;2023-02-28T07:10:11;99274.22;;;4.73;48.87
10587;BME280;5341;47.606;7.576;2023-02-28T07:12:41;99271.56;;;4.73;49.39
10587;BME280;5341;47.606;7.576;2023-02-28T07:15:10;99278.66;;;4.72;48.99
10587;BME280;5341;47.606;7.576;2023-02-28T07:17:37;99284.81;;;4.73;48.78
10587;BME280;5341;47.606;7.576;2023-02-28T07:20:06;99286.59;;;4.72;48.50
10587;BME280;5341;47.606;7.576;2023-02-28T07:22:34;99283.13;;;4.71;48.65
10587;BME280;5341;47.606;7.576;2023-02-28T07:25:02;99291.91;;;4.72;49.34
10587;BME280;5341;47.606;7.576;2023-02-28T07:27:30;99289.25;;;4.72;49.15
10587;BME280;5341;47.606;7.576;2023-02-28T07:29:59;99292.88;;;4.71;49.10
10587;BME280;5341;47.606;7.576;2023-02-28T07:32:29;99298.16;;;4.71;48.96
10587;BME280;5341;47.606;7.576;2023-02-28T07:34:57;99301.78;;;4.70;49.12
10587;BME280;5341;47.606;7.576;2023-02-28T07:37:24;99307.94;;;4.70;49.07
10587;BME280;5341;47.606;7.576;2023-02-28T07:39:52;99304.44;;;4.70;48.96
10587;BME280;5341;47.606;7.576;2023-02-28T07:42:22;99305.41;;;4.69;49.47
10587;BME280;5341;47.606;7.576;2023-02-28T07:44:53;99314.34;;;4.68;49.43
10587;BME280;5341;47.606;7.576;2023-02-28T07:47:23;99305.69;;;4.66;49.33
10587;BME280;5341;47.606;7.576;2023-02-28T07:49:52;99312.78;;;4.65;49.08
10587;BME280;5341;47.606;7.576;2023-02-28T07:52:19;99312.78;;;4.65;49.25
10587;BME280;5341;47.606;7.576;2023-02-28T07:54:47;99316.28;;;4.66;49.44
10587;BME280;5341;47.606;7.576;2023-02-28T07:57:15;99312.78;;;4.65;49.79
10587;BME280;5341;47.606;7.576;2023-02-28T07:59:44;99310.16;;;4.65;49.80
10587;BME280;5341;47.606;7.576;2023-02-28T08:02:13;99314.59;;;4.65;49.11
10587;BME280;5341;47.606;7.576;2023-02-28T08:04:43;99315.44;;;4.65;49.89
10587;BME280;5341;47.606;7.576;2023-02-28T08:07:12;99317.25;;;4.65;49.24
10587;BME280;5341;47.606;7.576;2023-02-28T08:09:40;99317.25;;;4.65;49.67
10587;BME280;5341;47.606;7.576;2023-02-28T08:12:09;99313.63;;;4.66;49.78
10587;BME280;5341;47.606;7.576;2023-02-28T08:14:38;99315.44;;;4.65;49.64
10587;BME280;5341;47.606;7.576;2023-02-28T08:17:06;99326.03;;;4.65;49.21
10587;BME280;5341;47.606;7.576;2023-02-28T08:19:33;99325.19;;;4.65;49.80
10587;BME280;5341;47.606;7.576;2023-02-28T08:22:06;99326.03;;;4.65;49.25
10587;BME280;5341;47.606;7.576;2023-02-28T08:24:37;99326.88;;;4.66;49.30
10587;BME280;5341;47.606;7.576;2023-02-28T08:27:04;99325.91;;;4.67;49.47
10587;BME280;5341;47.606;7.576;2023-02-28T08:29:32;99323.25;;;4.67;49.75
10587;BME280;5341;47.606;7.576;2023-02-28T08:32:01;99330.38;;;4.66;49.47
10587;BME280;5341;47.606;7.576;2023-02-28T08:34:29;99325.91;;;4.67;49.74
10587;BME280;5341;47.606;7.576;2023-02-28T08:36:56;99330.38;;;4.66;50.09
10587;BME280;5341;47.606;7.576;2023-02-28T08:39:25;99331.22;;;4.67;49.67
10587;BME280;5341;47.606;7.576;2023-02-28T08:41:53;99329.41;;;4.67;49.76
10587;BME280;5341;47.606;7.576;2023-02-28T08:44:20;99332.03;;;4.67;49.80
10587;BME280;5341;47.606;7.576;2023-02-28T08:46:47;99331.22;;;4.67;50.21
10587;BME280;5341;47.606;7.576;2023-02-28T08:49:16;99333.00;;;4.66;49.44
10587;BME280;5341;47.606;7.576;2023-02-28T08:51:45;99334.69;;;4.67;49.45
10587;BME280;5341;47.606;7.576;2023-02-28T08:54:16;99338.19;;;4.68;49.85
10587;BME280;5341;47.606;7.576;2023-02-28T08:56:46;99336.38;;;4.68;50.11
10587;BME280;5341;47.606;7.576;2023-02-28T08:59:14;99339.84;;;4.69;49.87
10587;BME280;5341;47.606;7.576;2023-02-28T09:01:43;99346.84;;;4.70;50.06
10587;BME280;5341;47.606;7.576;2023-02-28T09:04:14;99339.84;;;4.69;50.07
10587;BME280;5341;47.606;7.576;2023-02-28T09:06:43;99338.03;;;4.69;50.29
10587;BME280;5341;47.606;7.576;2023-02-28T09:09:12;99342.50;;;4.69;49.77
10587;BME280;5341;47.606;7.576;2023-02-28T09:11:41;99346.84;;;4.70;50.15
10587;BME280;5341;47.606;7.576;2023-02-28T09:14:11;99342.50;;;4.69;50.25
10587;BME280;5341;47.606;7.576;2023-02-28T09:16:38;99349.47;;;4.70;49.57
10587;BME280;5341;47.606;7.576;2023-02-28T09:19:06;99341.53;;;4.70;50.18
10587;BME280;5341;47.606;7.576;2023-02-28T09:21:34;99344.88;;;4.72;50.30
10587;BME280;5341;47.606;7.576;2023-02-28T09:24:01;99348.41;;;4.73;50.45
10587;BME280;5341;47.606;7.576;2023-02-28T09:26:29;99353.69;;;4.73;50.00
10587;BME280;5341;47.606;7.576;2023-02-28T09:28:57;99349.25;;;4.73;49.80
10587;BME280;5341;47.606;7.576;2023-02-28T09:31:28;99347.44;;;4.74;50.08
10587;BME280;5341;47.606;7.576;2023-02-28T09:33:59;99344.78;;;4.74;50.11
10587;BME280;5341;47.606;7.576;2023-02-28T09:36:27;99349.94;;;4.75;49.72
10587;BME280;5341;47.606;7.576;2023-02-28T09:38:57;99355.13;;;4.77;49.93
10587;BME280;5341;47.606;7.576;2023-02-28T09:41:31;99354.28;;;4.76;50.42
10587;BME280;5341;47.606;7.576;2023-02-28T09:44:13;99353.28;;;4.77;50.56
10587;BME280;5341;47.606;7.576;2023-02-28T09:46:48;99358.47;;;4.79;50.63
10587;BME280;5341;47.606;7.576;2023-02-28T09:49:20;99355.81;;;4.79;50.29
10587;BME280;5341;47.606;7.576;2023-02-28T09:51:51;99352.19;;;4.80;50.30
10587;BME280;5341;47.606;7.576;2023-02-28T09:54:23;99358.19;;;4.82;50.29
10587;BME280;5341;47.606;7.576;2023-02-28T09:56:54;99349.28;;;4.83;50.51
10587;BME280;5341;47.606;7.576;2023-02-28T09:59:35;99354.34;;;4.86;49.98
10587;BME280;5341;47.606;7.576;2023-02-28T10:02:21;99351.53;;;4.87;50.01
10587;BME280;5341;47.606;7.576;2023-02-28T10:04:54;99355.75;;;4.90;50.29
10587;BME280;5341;47.606;7.576;2023-02-28T10:07:50;99356.44;;;4.92;50.52
10587;BME280;5341;47.606;7.576;2023-02-28T10:10:25;99355.59;;;4.91;50.92
10587;BME280;5341;47.606;7.576;2023-02-28T10:12:58;99359.22;;;4.90;50.49
10587;BME280;5341;47.606;7.576;2023-02-28T10:15:29;99364.25;;;4.93;50.74
10587;BME280;5341;47.606;7.576;2023-02-28T10:18:00;99359.66;;;4.95;50.42
10587;BME280;5341;47.606;7.576;2023-02-28T10:20:32;99361.34;;;4.96;51.26
10587;BME280;5341;47.606;7.576;2023-02-28T10:23:05;99369.88;;;5.00;50.89
10587;BME280;5341;47.606;7.576;2023-02-28T10:25:37;99368.91;;;5.01;50.76
10587;BME280;5341;47.606;7.576;2023-02-28T10:28:11;99372.25;;;5.03;51.13
10587;BME280;5341;47.606;7.576;2023-02-28T10:30:41;99372.97;;;5.05;51.32
10587;BME280;5341;47.606;7.576;2023-02-28T10:33:18;99375.63;;;5.05;50.76
10587;BME280;5341;47.606;7.576;2023-02-28T10:35:46;99379.94;;;5.06;50.63
10587;BME280;5341;47.606;7.576;2023-02-28T10:38:20;99372.00;;;5.06;50.67
10587;BME280;5341;47.606;7.576;2023-02-28T10:40:48;99366.69;;;5.06;50.75
10587;BME280;5341;47.606;7.576;2023-02-28T10:43:21;99367.53;;;5.07;50.94
10587;BME280;5341;47.606;7.576;2023-02-28T10:45:57;99368.38;;;5.07;50.57
10587;BME280;5341;47.606;7.576;2023-02-28T10:48:38;99361.16;;;5.09;50.77
10587;BME280;5341;47.606;7.576;2023-02-28T10:51:10;99371.63;;;5.11;50.79
10587;BME280;5341;47.606;7.576;2023-02-28T10:53:45;99375.66;;;5.15;51.15
10587;BME280;5341;47.606;7.576;2023-02-28T10:56:17;99370.94;;;5.18;51.07
10587;BME280;5341;47.606;7.576;2023-02-28T10:58:54;99362.84;;;5.20;50.55
10587;BME280;5341;47.606;7.576;2023-02-28T11:01:25;99368.75;;;5.23;51.32
10587;BME280;5341;47.606;7.576;2023-02-28T11:04:17;99370.84;;;5.29;51.53
10587;BME280;5341;47.606;7.576;2023-02-28T11:06:46;99371.03;;;5.38;52.34
10587;BME280;5341;47.606;7.576;2023-02-28T11:09:20;99373.72;;;5.47;51.77
10587;BME280;5341;47.606;7.576;2023-02-28T11:11:50;99372.47;;;5.51;51.74
10587;BME280;5341;47.606;7.576;2023-02-28T11:14:22;99375.81;;;5.53;51.92
10587;BME280;5341;47.606;7.576;2023-02-28T11:16:53;99366.88;;;5.54;51.53
10587;BME280;5341;47.606;7.576;2023-02-28T11:19:30;99377.34;;;5.56;51.76
10587;BME280;5341;47.606;7.576;2023-02-28T11:22:02;99377.34;;;5.56;50.98
10587;BME280;5341;47.606;7.576;2023-02-28T11:24:33;99369.38;;;5.56;51.41
10587;BME280;5341;47.606;7.576;2023-02-28T11:29:46;99362.16;;;5.58;51.03
10587;BME280;5341;47.606;7.576;2023-02-28T11:32:22;99362.03;;;5.59;51.05
10587;BME280;5341;47.606;7.576;2023-02-28T11:35:03;99361.75;;;5.63;50.99
10587;BME280;5341;47.606;7.576;2023-02-28T11:37:40;99357.28;;;5.63;51.05
10587;BME280;5341;47.606;7.576;2023-02-28T11:40:13;99359.09;;;5.63;51.18
10587;BME280;5341;47.606;7.576;2023-02-28T11:42:57;99369.41;;;5.66;51.40
10587;BME280;5341;47.606;7.576;2023-02-28T11:45:45;99363.13;;;5.67;51.80
10587;BME280;5341;47.606;7.576;2023-02-28T11:48:21;99364.66;;;5.69;51.54
10587;BME280;5341;47.606;7.576;2023-02-28T11:51:11;99367.91;;;5.73;51.39
10587;BME280;5341;47.606;7.576;2023-02-28T11:53:53;99365.97;;;5.75;51.73
10587;BME280;5341;47.606;7.576;2023-02-28T11:56:35;99360.50;;;5.76;52.35
10587;BME280;5341;47.606;7.576;2023-02-28T12:02:15;99363.56;;;5.81;51.51
10587;BME280;5341;47.606;7.576;2023-02-28T12:05:01;99362.34;;;5.85;51.33
10587;BME280;5341;47.606;7.576;2023-02-28T12:07:46;99352.44;;;5.87;51.03
10587;BME280;5341;47.606;7.576;2023-02-28T12:10:20;99356.50;;;5.92;51.23
10587;BME280;5341;47.606;7.576;2023-02-28T12:13:07;99351.06;;;5.93;51.59
10587;BME280;5341;47.606;7.576;2023-02-28T12:18:53;99355.00;;;5.99;51.75
10587;BME280;5341;47.606;7.576;2023-02-28T12:21:44;99355.41;;;6.04;51.92
10587;BME280;5341;47.606;7.576;2023-02-28T12:24:47;99347.03;;;6.08;52.73
10587;BME280;5341;47.606;7.576;2023-02-28T12:27:21;99353.88;;;6.11;52.79
10587;BME280;5341;47.606;7.576;2023-02-28T12:29:52;99342.13;;;6.13;52.28
10587;BME280;5341;47.606;7.576;2023-02-28T12:32:23;99340.88;;;6.17;52.28
10587;BME280;5341;47.606;7.576;2023-02-28T12:34:56;99346.06;;;6.19;52.20
10587;BME280;5341;47.606;7.576;2023-02-28T12:37:29;99339.63;;;6.22;52.26
10587;BME280;5341;47.606;7.576;2023-02-28T12:40:03;99342.13;;;6.23;51.92
10587;BME280;5341;47.606;7.576;2023-02-28T12:42:38;99347.31;;;6.25;51.48
10587;BME280;5341;47.606;7.576;2023-02-28T12:45:11;99341.00;;;6.26;51.32
10587;BME280;5341;47.606;7.576;2023-02-28T12:47:44;99353.31;;;6.27;51.08
10587;BME280;5341;47.606;7.576;2023-02-28T12:50:15;99348.00;;;6.27;50.87
10587;BME280;5341;47.606;7.576;2023-02-28T12:52:52;99342.41;;;6.30;51.15
10587;BME280;5341;47.606;7.576;2023-02-28T12:58:29;99339.91;;;6.19;50.80
10587;BME280;5341;47.606;7.576;2023-02-28T13:01:14;99332.06;;;6.17;51.36
10587;BME280;5341;47.606;7.576;2023-02-28T13:04:08;99339.06;;;6.18;51.27
10587;BME280;5341;47.606;7.576;2023-02-28T13:06:58;99329.16;;;6.20;50.93
10587;BME280;5341;47.606;7.576;2023-02-28T13:09:34;99334.16;;;6.23;51.04
10587;BME280;5341;47.606;7.576;2023-02-28T13:12:12;99333.88;;;6.26;50.67
10587;BME280;5341;47.606;7.576;2023-02-28T13:14:43;99330.94;;;6.29;50.53
10587;BME280;5341;47.606;7.576;2023-02-28T13:17:11;99332.63;;;6.30;50.64
10587;BME280;5341;47.606;7.576;2023-02-28T13:19:43;99331.50;;;6.33;50.35
10587;BME280;5341;47.606;7.576;2023-02-28T13:22:44;99322.72;;;6.32;49.98
10587;BME280;5341;47.606;7.576;2023-02-28T16:51:03;99430.28;;;4.11;52.38
10587;BME280;5341;47.606;7.576;2023-02-28T16:53:30;99422.31;;;4.23;52.72
10587;BME280;5341;47.606;7.576;2023-02-28T16:55:58;99425.38;;;4.39;52.69
10587;BME280;5341;47.606;7.576;2023-02-28T16:58:27;99435.41;;;4.56;52.21
10587;BME280;5341;47.606;7.576;2023-02-28T17:00:55;99435.84;;;4.73;52.14
10587;BME280;5341;47.606;7.576;2023-02-28T17:03:24;99436.22;;;4.89;51.83
10587;BME280;5341;47.606;7.576;2023-02-28T17:05:52;99439.22;;;5.05;51.90
10587;BME280;5341;47.606;7.576;2023-02-28T17:08:26;99446.00;;;5.19;51.32
10587;BME280;5341;47.606;7.576;2023-02-28T17:10:55;99453.03;;;5.29;50.62
10587;BME280;5341;47.606;7.576;2023-02-28T17:13:24;99443.31;;;5.40;50.85
10587;BME280;5341;47.606;7.576;2023-02-28T17:15:52;99442.69;;;5.47;50.56
10587;BME280;5341;47.606;7.576;2023-02-28T17:18:23;99443.81;;;5.54;50.34
10587;BME280;5341;47.606;7.576;2023-02-28T17:21:01;99451.94;;;5.63;50.16
10587;BME280;5341;47.606;7.576;2023-02-28T17:23:30;99445.38;;;5.67;50.35
10587;BME280;5341;47.606;7.576;2023-02-28T17:26:00;99444.16;;;5.71;49.90
10587;BME280;5341;47.606;7.576;2023-02-28T17:28:28;99449.47;;;5.71;49.71
10587;BME280;5341;47.606;7.576;2023-02-28T17:30:56;99466.09;;;5.73;49.91